sensor_id;sensor_type;location;lat;lon;timestamp;P1;durP1;ratioP1;P2;durP2;ratioP2
68273;SDS011;55104;47.356;19.448;2023-06-10T00:00:21;10.85;;;4.45;;
68273;SDS011;55104;47.356;19.448;2023-06-10T00:03:24;9.75;;;4.38;;
68273;SDS011;55104;47.356;19.448;2023-06-10T00:06:27;9.90;;;3.97;;
68273;SDS011;55104;47.356;19.448;2023-06-10T00:09:30;10.30;;;4.25;;
68273;SDS011;55104;47.356;19.448;2023-06-10T00:12:32;9.38;;;3.97;;
68273;SDS011;55104;47.356;19.448;2023-06-10T00:15:38;10.13;;;4.15;;
68273;SDS011;55104;47.356;19.448;2023-06-10T00:18:41;9.77;;;3.97;;
68273;SDS011;55104;47.356;19.448;2023-06-10T00:21:43;9.57;;;3.83;;
68273;SDS011;55104;47.356;19.448;2023-06-10T00:24:46;10.02;;;4.13;;
68273;SDS011;55104;47.356;19.448;2023-06-10T00:27:49;9.82;;;4.20;;
68273;SDS011;55104;47.356;19.448;2023-06-10T00:30:51;10.45;;;4.22;;
68273;SDS011;55104;47.356;19.448;2023-06-10T00:33:53;9.68;;;4.20;;
68273;SDS011;55104;47.356;19.448;2023-06-10T00:36:55;10.07;;;4.10;;
68273;SDS011;55104;47.356;19.448;2023-06-10T00:39:57;9.43;;;4.10;;
68273;SDS011;55104;47.356;19.448;2023-06-10T00:42:59;11.55;;;4.25;;
68273;SDS011;55104;47.356;19.448;2023-06-10T00:46:01;10.55;;;3.85;;
68273;SDS011;55104;47.356;19.448;2023-06-10T00:49:04;10.55;;;4.05;;
68273;SDS011;55104;47.356;19.448;2023-06-10T00:52:07;8.93;;;3.57;;
68273;SDS011;55104;47.356;19.448;2023-06-10T00:55:11;13.25;;;4.13;;
68273;SDS011;55104;47.356;19.448;2023-06-10T00:58:15;9.38;;;4.40;;
68273;SDS011;55104;47.356;19.448;2023-06-10T01:01:17;8.75;;;3.95;;
68273;SDS011;55104;47.356;19.448;2023-06-10T01:04:21;9.55;;;3.88;;
68273;SDS011;55104;47.356;19.448;2023-06-10T01:07:25;9.00;;;3.80;;
68273;SDS011;55104;47.356;19.448;2023-06-10T01:10:43;9.10;;;3.40;;
68273;SDS011;55104;47.356;19.448;2023-06-10T01:14:11;9.95;;;3.72;;
68273;SDS011;55104;47.356;19.448;2023-06-10T01:17:17;11.50;;;4.03;;
68273;SDS011;55104;47.356;19.448;2023-06-10T01:20:19;10.70;;;3.90;;
68273;SDS011;55104;47.356;19.448;2023-06-10T01:23:21;12.77;;;4.30;;
68273;SDS011;55104;47.356;19.448;2023-06-10T01:26:28;9.25;;;4.05;;
68273;SDS011;55104;47.356;19.448;2023-06-10T01:29:37;9.27;;;3.85;;
68273;SDS011;55104;47.356;19.448;2023-06-10T01:32:48;10.20;;;4.38;;
68273;SDS011;55104;47.356;19.448;2023-06-10T01:35:53;12.10;;;3.80;;
68273;SDS011;55104;47.356;19.448;2023-06-10T01:38:57;9.77;;;3.70;;
68273;SDS011;55104;47.356;19.448;2023-06-10T01:42:00;9.70;;;3.70;;
68273;SDS011;55104;47.356;19.448;2023-06-10T01:45:04;9.40;;;3.97;;
68273;SDS011;55104;47.356;19.448;2023-06-10T01:48:07;9.88;;;4.03;;
68273;SDS011;55104;47.356;19.448;2023-06-10T01:51:09;11.18;;;4.28;;
68273;SDS011;55104;47.356;19.448;2023-06-10T01:54:11;9.73;;;4.37;;
68273;SDS011;55104;47.356;19.448;2023-06-10T01:57:13;10.57;;;4.40;;
68273;SDS011;55104;47.356;19.448;2023-06-10T02:00:16;11.50;;;4.50;;
68273;SDS011;55104;47.356;19.448;2023-06-10T02:03:19;9.85;;;4.18;;
68273;SDS011;55104;47.356;19.448;2023-06-10T02:06:21;9.45;;;3.63;;
68273;SDS011;55104;47.356;19.448;2023-06-10T02:09:24;11.80;;;3.70;;
68273;SDS011;55104;47.356;19.448;2023-06-10T02:12:26;11.68;;;4.15;;
68273;SDS011;55104;47.356;19.448;2023-06-10T02:15:28;11.65;;;4.25;;
68273;SDS011;55104;47.356;19.448;2023-06-10T02:18:30;12.05;;;4.18;;
68273;SDS011;55104;47.356;19.448;2023-06-10T02:21:33;9.52;;;4.00;;
68273;SDS011;55104;47.356;19.448;2023-06-10T02:24:36;11.37;;;4.20;;
68273;SDS011;55104;47.356;19.448;2023-06-10T02:27:41;9.32;;;3.67;;
68273;SDS011;55104;47.356;19.448;2023-06-10T02:30:43;8.60;;;3.70;;
68273;SDS011;55104;47.356;19.448;2023-06-10T02:33:45;10.07;;;3.72;;
68273;SDS011;55104;47.356;19.448;2023-06-10T02:36:48;9.25;;;4.15;;
68273;SDS011;55104;47.356;19.448;2023-06-10T02:39:55;10.37;;;3.70;;
68273;SDS011;55104;47.356;19.448;2023-06-10T02:42:58;9.00;;;3.75;;
68273;SDS011;55104;47.356;19.448;2023-06-10T02:46:01;8.77;;;3.53;;
68273;SDS011;55104;47.356;19.448;2023-06-10T02:49:05;10.27;;;4.22;;
68273;SDS011;55104;47.356;19.448;2023-06-10T02:52:07;11.77;;;4.35;;
68273;SDS011;55104;47.356;19.448;2023-06-10T02:55:10;8.77;;;3.80;;
68273;SDS011;55104;47.356;19.448;2023-06-10T02:58:15;10.20;;;3.80;;
68273;SDS011;55104;47.356;19.448;2023-06-10T03:01:18;11.25;;;4.40;;
68273;SDS011;55104;47.356;19.448;2023-06-10T03:04:35;10.13;;;4.38;;
68273;SDS011;55104;47.356;19.448;2023-06-10T03:07:44;12.77;;;4.72;;
68273;SDS011;55104;47.356;19.448;2023-06-10T03:10:49;11.40;;;4.73;;
68273;SDS011;55104;47.356;19.448;2023-06-10T03:13:53;11.52;;;4.97;;
68273;SDS011;55104;47.356;19.448;2023-06-10T03:16:56;12.75;;;4.97;;
68273;SDS011;55104;47.356;19.448;2023-06-10T03:19:59;13.00;;;5.00;;
68273;SDS011;55104;47.356;19.448;2023-06-10T03:23:01;15.63;;;6.10;;
68273;SDS011;55104;47.356;19.448;2023-06-10T03:26:04;12.33;;;5.00;;
68273;SDS011;55104;47.356;19.448;2023-06-10T03:29:08;14.23;;;4.75;;
68273;SDS011;55104;47.356;19.448;2023-06-10T03:32:10;14.25;;;5.68;;
68273;SDS011;55104;47.356;19.448;2023-06-10T03:35:13;12.95;;;5.38;;
68273;SDS011;55104;47.356;19.448;2023-06-10T03:38:16;12.25;;;4.80;;
68273;SDS011;55104;47.356;19.448;2023-06-10T03:41:18;14.43;;;5.20;;
68273;SDS011;55104;47.356;19.448;2023-06-10T03:44:21;10.05;;;4.05;;
68273;SDS011;55104;47.356;19.448;2023-06-10T03:47:23;10.95;;;4.82;;
68273;SDS011;55104;47.356;19.448;2023-06-10T03:50:26;12.05;;;4.00;;
68273;SDS011;55104;47.356;19.448;2023-06-10T03:53:28;11.60;;;4.43;;
68273;SDS011;55104;47.356;19.448;2023-06-10T03:56:30;10.53;;;4.00;;
68273;SDS011;55104;47.356;19.448;2023-06-10T03:59:33;10.90;;;4.13;;
68273;SDS011;55104;47.356;19.448;2023-06-10T04:02:35;11.93;;;4.63;;
68273;SDS011;55104;47.356;19.448;2023-06-10T04:05:38;10.88;;;4.60;;
68273;SDS011;55104;47.356;19.448;2023-06-10T04:08:40;10.05;;;4.35;;
68273;SDS011;55104;47.356;19.448;2023-06-10T04:11:44;12.60;;;4.67;;
68273;SDS011;55104;47.356;19.448;2023-06-10T04:14:46;13.10;;;5.53;;
68273;SDS011;55104;47.356;19.448;2023-06-10T04:17:48;11.95;;;4.60;;
68273;SDS011;55104;47.356;19.448;2023-06-10T04:20:53;12.43;;;5.10;;
68273;SDS011;55104;47.356;19.448;2023-06-10T04:23:55;14.90;;;5.18;;
68273;SDS011;55104;47.356;19.448;2023-06-10T04:26:57;16.47;;;6.27;;
68273;SDS011;55104;47.356;19.448;2023-06-10T04:29:59;20.00;;;7.05;;
68273;SDS011;55104;47.356;19.448;2023-06-10T04:33:03;24.77;;;7.43;;
68273;SDS011;55104;47.356;19.448;2023-06-10T04:36:05;25.33;;;7.30;;
68273;SDS011;55104;47.356;19.448;2023-06-10T04:39:10;24.95;;;8.75;;
68273;SDS011;55104;47.356;19.448;2023-06-10T04:42:12;24.70;;;8.23;;
68273;SDS011;55104;47.356;19.448;2023-06-10T04:45:15;31.83;;;10.15;;
68273;SDS011;55104;47.356;19.448;2023-06-10T04:48:17;26.70;;;9.13;;
68273;SDS011;55104;47.356;19.448;2023-06-10T04:51:19;29.02;;;9.65;;
68273;SDS011;55104;47.356;19.448;2023-06-10T04:54:21;26.88;;;8.73;;
68273;SDS011;55104;47.356;19.448;2023-06-10T04:57:23;26.07;;;8.67;;
68273;SDS011;55104;47.356;19.448;2023-06-10T05:00:26;25.25;;;8.52;;
68273;SDS011;55104;47.356;19.448;2023-06-10T05:03:28;24.48;;;9.93;;
68273;SDS011;55104;47.356;19.448;2023-06-10T05:06:30;26.80;;;10.13;;
68273;SDS011;55104;47.356;19.448;2023-06-10T05:09:32;27.02;;;10.23;;
68273;SDS011;55104;47.356;19.448;2023-06-10T05:12:34;23.43;;;9.00;;
68273;SDS011;55104;47.356;19.448;2023-06-10T05:15:36;24.70;;;9.63;;
68273;SDS011;55104;47.356;19.448;2023-06-10T05:18:39;27.20;;;9.35;;
68273;SDS011;55104;47.356;19.448;2023-06-10T05:21:41;26.08;;;10.25;;
68273;SDS011;55104;47.356;19.448;2023-06-10T05:24:43;25.20;;;9.45;;
68273;SDS011;55104;47.356;19.448;2023-06-10T05:27:45;27.13;;;10.87;;
68273;SDS011;55104;47.356;19.448;2023-06-10T05:30:47;28.38;;;11.82;;
68273;SDS011;55104;47.356;19.448;2023-06-10T05:33:51;27.42;;;12.38;;
68273;SDS011;55104;47.356;19.448;2023-06-10T05:36:53;22.95;;;10.90;;
68273;SDS011;55104;47.356;19.448;2023-06-10T05:39:55;27.15;;;12.38;;
68273;SDS011;55104;47.356;19.448;2023-06-10T05:42:57;24.50;;;11.83;;
68273;SDS011;55104;47.356;19.448;2023-06-10T05:45:59;25.73;;;12.48;;
68273;SDS011;55104;47.356;19.448;2023-06-10T05:49:01;22.42;;;10.73;;
68273;SDS011;55104;47.356;19.448;2023-06-10T05:52:03;22.75;;;11.55;;
68273;SDS011;55104;47.356;19.448;2023-06-10T05:55:05;25.05;;;11.88;;
68273;SDS011;55104;47.356;19.448;2023-06-10T05:58:08;27.53;;;12.53;;
68273;SDS011;55104;47.356;19.448;2023-06-10T06:01:10;23.08;;;12.73;;
68273;SDS011;55104;47.356;19.448;2023-06-10T06:04:13;22.58;;;12.02;;
68273;SDS011;55104;47.356;19.448;2023-06-10T06:07:15;23.05;;;10.85;;
68273;SDS011;55104;47.356;19.448;2023-06-10T06:10:17;26.27;;;10.85;;
68273;SDS011;55104;47.356;19.448;2023-06-10T06:13:20;23.23;;;11.23;;
68273;SDS011;55104;47.356;19.448;2023-06-10T06:16:22;22.45;;;9.77;;
68273;SDS011;55104;47.356;19.448;2023-06-10T06:19:24;24.20;;;10.73;;
68273;SDS011;55104;47.356;19.448;2023-06-10T06:22:26;22.02;;;10.38;;
68273;SDS011;55104;47.356;19.448;2023-06-10T06:25:28;23.50;;;11.23;;
68273;SDS011;55104;47.356;19.448;2023-06-10T06:28:30;26.07;;;11.17;;
68273;SDS011;55104;47.356;19.448;2023-06-10T06:31:33;23.48;;;11.30;;
68273;SDS011;55104;47.356;19.448;2023-06-10T06:34:36;23.15;;;11.07;;
68273;SDS011;55104;47.356;19.448;2023-06-10T06:37:38;24.33;;;12.18;;
68273;SDS011;55104;47.356;19.448;2023-06-10T06:40:54;25.17;;;11.23;;
68273;SDS011;55104;47.356;19.448;2023-06-10T06:43:56;24.33;;;11.83;;
68273;SDS011;55104;47.356;19.448;2023-06-10T06:47:12;22.33;;;10.90;;
68273;SDS011;55104;47.356;19.448;2023-06-10T06:50:14;26.67;;;12.45;;
68273;SDS011;55104;47.356;19.448;2023-06-10T06:53:18;26.52;;;11.77;;
68273;SDS011;55104;47.356;19.448;2023-06-10T06:56:20;25.23;;;12.65;;
68273;SDS011;55104;47.356;19.448;2023-06-10T06:59:22;27.63;;;12.67;;
68273;SDS011;55104;47.356;19.448;2023-06-10T07:02:25;26.55;;;12.15;;
68273;SDS011;55104;47.356;19.448;2023-06-10T07:05:27;29.08;;;12.55;;
68273;SDS011;55104;47.356;19.448;2023-06-10T07:08:29;26.73;;;12.13;;
68273;SDS011;55104;47.356;19.448;2023-06-10T07:11:31;24.88;;;12.15;;
68273;SDS011;55104;47.356;19.448;2023-06-10T07:14:33;28.93;;;11.53;;
68273;SDS011;55104;47.356;19.448;2023-06-10T07:17:35;28.83;;;12.63;;
68273;SDS011;55104;47.356;19.448;2023-06-10T07:20:37;26.50;;;12.40;;
68273;SDS011;55104;47.356;19.448;2023-06-10T07:23:43;22.88;;;10.55;;
68273;SDS011;55104;47.356;19.448;2023-06-10T07:26:45;19.70;;;9.60;;
68273;SDS011;55104;47.356;19.448;2023-06-10T07:29:47;17.60;;;8.30;;
68273;SDS011;55104;47.356;19.448;2023-06-10T07:32:49;19.90;;;10.07;;
68273;SDS011;55104;47.356;19.448;2023-06-10T07:35:53;19.17;;;9.20;;
68273;SDS011;55104;47.356;19.448;2023-06-10T07:38:55;18.00;;;9.35;;
68273;SDS011;55104;47.356;19.448;2023-06-10T07:41:57;19.52;;;10.18;;
68273;SDS011;55104;47.356;19.448;2023-06-10T07:44:59;20.37;;;10.77;;
68273;SDS011;55104;47.356;19.448;2023-06-10T07:48:02;21.70;;;9.93;;
68273;SDS011;55104;47.356;19.448;2023-06-10T07:51:04;18.88;;;9.50;;
68273;SDS011;55104;47.356;19.448;2023-06-10T07:54:06;19.77;;;10.32;;
68273;SDS011;55104;47.356;19.448;2023-06-10T07:57:08;20.17;;;10.35;;
68273;SDS011;55104;47.356;19.448;2023-06-10T08:00:10;16.63;;;10.03;;
68273;SDS011;55104;47.356;19.448;2023-06-10T08:03:15;16.67;;;9.15;;
68273;SDS011;55104;47.356;19.448;2023-06-10T08:06:17;15.50;;;7.95;;
68273;SDS011;55104;47.356;19.448;2023-06-10T08:09:19;16.45;;;8.90;;
68273;SDS011;55104;47.356;19.448;2023-06-10T08:12:23;15.85;;;8.90;;
68273;SDS011;55104;47.356;19.448;2023-06-10T08:15:25;16.30;;;8.47;;
68273;SDS011;55104;47.356;19.448;2023-06-10T08:18:27;18.50;;;9.25;;
68273;SDS011;55104;47.356;19.448;2023-06-10T08:21:29;14.40;;;8.40;;
68273;SDS011;55104;47.356;19.448;2023-06-10T08:24:31;15.30;;;7.53;;
68273;SDS011;55104;47.356;19.448;2023-06-10T08:27:34;11.50;;;5.85;;
68273;SDS011;55104;47.356;19.448;2023-06-10T08:30:36;14.03;;;6.60;;
68273;SDS011;55104;47.356;19.448;2023-06-10T08:33:38;13.63;;;7.43;;
68273;SDS011;55104;47.356;19.448;2023-06-10T08:36:40;14.00;;;7.72;;
68273;SDS011;55104;47.356;19.448;2023-06-10T08:39:42;12.27;;;6.53;;
68273;SDS011;55104;47.356;19.448;2023-06-10T08:42:45;12.27;;;6.82;;
68273;SDS011;55104;47.356;19.448;2023-06-10T08:45:55;12.63;;;6.73;;
68273;SDS011;55104;47.356;19.448;2023-06-10T08:49:02;12.40;;;7.10;;
68273;SDS011;55104;47.356;19.448;2023-06-10T08:52:07;13.35;;;7.15;;
68273;SDS011;55104;47.356;19.448;2023-06-10T08:55:11;11.70;;;6.03;;
68273;SDS011;55104;47.356;19.448;2023-06-10T08:58:17;12.70;;;6.60;;
68273;SDS011;55104;47.356;19.448;2023-06-10T09:01:19;10.67;;;5.00;;
68273;SDS011;55104;47.356;19.448;2023-06-10T09:04:22;8.73;;;4.30;;
68273;SDS011;55104;47.356;19.448;2023-06-10T09:07:26;7.80;;;2.90;;
68273;SDS011;55104;47.356;19.448;2023-06-10T09:10:28;6.97;;;2.17;;
68273;SDS011;55104;47.356;19.448;2023-06-10T09:13:31;6.30;;;2.80;;
68273;SDS011;55104;47.356;19.448;2023-06-10T09:16:33;6.57;;;2.77;;
68273;SDS011;55104;47.356;19.448;2023-06-10T09:19:36;6.55;;;2.40;;
68273;SDS011;55104;47.356;19.448;2023-06-10T09:22:41;5.50;;;2.30;;
68273;SDS011;55104;47.356;19.448;2023-06-10T09:25:44;4.80;;;1.90;;
68273;SDS011;55104;47.356;19.448;2023-06-10T09:28:49;5.85;;;1.90;;
68273;SDS011;55104;47.356;19.448;2023-06-10T09:31:54;5.23;;;2.03;;
68273;SDS011;55104;47.356;19.448;2023-06-10T09:34:56;5.40;;;2.10;;
68273;SDS011;55104;47.356;19.448;2023-06-10T09:38:00;5.88;;;2.38;;
68273;SDS011;55104;47.356;19.448;2023-06-10T09:41:03;6.35;;;2.20;;
68273;SDS011;55104;47.356;19.448;2023-06-10T09:44:16;5.47;;;2.20;;
68273;SDS011;55104;47.356;19.448;2023-06-10T09:47:21;7.97;;;2.30;;
68273;SDS011;55104;47.356;19.448;2023-06-10T09:50:25;6.10;;;2.33;;
68273;SDS011;55104;47.356;19.448;2023-06-10T09:53:28;6.47;;;2.80;;
68273;SDS011;55104;47.356;19.448;2023-06-10T09:56:33;6.80;;;2.95;;
68273;SDS011;55104;47.356;19.448;2023-06-10T09:59:37;5.70;;;2.40;;
68273;SDS011;55104;47.356;19.448;2023-06-10T10:02:46;7.10;;;2.33;;
68273;SDS011;55104;47.356;19.448;2023-06-10T10:05:56;7.50;;;2.17;;
68273;SDS011;55104;47.356;19.448;2023-06-10T10:09:01;5.63;;;2.38;;
68273;SDS011;55104;47.356;19.448;2023-06-10T10:12:15;5.88;;;2.30;;
68273;SDS011;55104;47.356;19.448;2023-06-10T10:15:17;6.47;;;2.40;;
68273;SDS011;55104;47.356;19.448;2023-06-10T10:18:20;5.67;;;2.47;;
68273;SDS011;55104;47.356;19.448;2023-06-10T10:21:31;8.32;;;2.10;;
68273;SDS011;55104;47.356;19.448;2023-06-10T10:24:39;5.15;;;2.00;;
68273;SDS011;55104;47.356;19.448;2023-06-10T10:30:53;5.68;;;2.28;;
68273;SDS011;55104;47.356;19.448;2023-06-10T10:33:59;6.47;;;2.30;;
68273;SDS011;55104;47.356;19.448;2023-06-10T10:37:04;6.15;;;2.42;;
68273;SDS011;55104;47.356;19.448;2023-06-10T10:40:06;9.07;;;2.67;;
68273;SDS011;55104;47.356;19.448;2023-06-10T10:43:09;5.68;;;2.05;;
68273;SDS011;55104;47.356;19.448;2023-06-10T10:46:12;7.20;;;1.85;;
68273;SDS011;55104;47.356;19.448;2023-06-10T10:49:16;4.90;;;1.73;;
68273;SDS011;55104;47.356;19.448;2023-06-10T10:52:19;5.45;;;1.92;;
68273;SDS011;55104;47.356;19.448;2023-06-10T10:55:22;5.68;;;2.42;;
68273;SDS011;55104;47.356;19.448;2023-06-10T10:58:25;6.07;;;2.15;;
68273;SDS011;55104;47.356;19.448;2023-06-10T11:01:28;6.22;;;2.20;;
68273;SDS011;55104;47.356;19.448;2023-06-10T11:04:48;8.77;;;3.60;;
68273;SDS011;55104;47.356;19.448;2023-06-10T11:07:54;8.90;;;4.32;;
68273;SDS011;55104;47.356;19.448;2023-06-10T11:11:00;9.73;;;4.70;;
68273;SDS011;55104;47.356;19.448;2023-06-10T11:17:17;9.50;;;4.35;;
68273;SDS011;55104;47.356;19.448;2023-06-10T11:23:50;8.63;;;3.30;;
68273;SDS011;55104;47.356;19.448;2023-06-10T11:26:54;6.95;;;2.85;;
68273;SDS011;55104;47.356;19.448;2023-06-10T11:33:01;6.57;;;2.80;;
68273;SDS011;55104;47.356;19.448;2023-06-10T11:36:06;7.70;;;3.03;;
68273;SDS011;55104;47.356;19.448;2023-06-10T11:39:09;6.43;;;2.30;;
68273;SDS011;55104;47.356;19.448;2023-06-10T11:42:12;6.10;;;2.70;;
68273;SDS011;55104;47.356;19.448;2023-06-10T11:45:15;5.10;;;1.77;;
68273;SDS011;55104;47.356;19.448;2023-06-10T11:48:20;6.45;;;2.10;;
68273;SDS011;55104;47.356;19.448;2023-06-10T11:51:24;4.60;;;1.57;;
68273;SDS011;55104;47.356;19.448;2023-06-10T11:54:27;5.90;;;1.77;;
68273;SDS011;55104;47.356;19.448;2023-06-10T11:57:29;4.72;;;1.50;;
68273;SDS011;55104;47.356;19.448;2023-06-10T12:00:31;5.03;;;1.70;;
68273;SDS011;55104;47.356;19.448;2023-06-10T12:03:37;4.28;;;1.40;;
68273;SDS011;55104;47.356;19.448;2023-06-10T12:06:49;4.47;;;1.57;;
68273;SDS011;55104;47.356;19.448;2023-06-10T12:09:59;4.63;;;1.48;;
68273;SDS011;55104;47.356;19.448;2023-06-10T12:13:09;5.32;;;1.50;;
68273;SDS011;55104;47.356;19.448;2023-06-10T12:16:11;4.15;;;1.40;;
68273;SDS011;55104;47.356;19.448;2023-06-10T12:19:13;4.50;;;1.42;;
68273;SDS011;55104;47.356;19.448;2023-06-10T12:22:16;3.70;;;1.13;;
68273;SDS011;55104;47.356;19.448;2023-06-10T12:25:23;3.63;;;1.10;;
68273;SDS011;55104;47.356;19.448;2023-06-10T12:28:29;3.70;;;1.20;;
68273;SDS011;55104;47.356;19.448;2023-06-10T12:31:31;3.70;;;1.23;;
68273;SDS011;55104;47.356;19.448;2023-06-10T12:34:37;3.85;;;1.30;;
68273;SDS011;55104;47.356;19.448;2023-06-10T12:37:41;3.20;;;1.10;;
68273;SDS011;55104;47.356;19.448;2023-06-10T12:40:45;4.22;;;1.27;;
68273;SDS011;55104;47.356;19.448;2023-06-10T12:43:47;3.63;;;1.20;;
68273;SDS011;55104;47.356;19.448;2023-06-10T12:46:54;3.72;;;1.10;;
68273;SDS011;55104;47.356;19.448;2023-06-10T12:49:57;5.38;;;1.35;;
68273;SDS011;55104;47.356;19.448;2023-06-10T12:53:00;4.30;;;1.40;;
68273;SDS011;55104;47.356;19.448;2023-06-10T12:56:03;4.10;;;1.20;;
68273;SDS011;55104;47.356;19.448;2023-06-10T12:59:05;4.53;;;1.50;;
68273;SDS011;55104;47.356;19.448;2023-06-10T13:02:07;4.93;;;1.40;;
68273;SDS011;55104;47.356;19.448;2023-06-10T13:05:10;4.25;;;1.40;;
68273;SDS011;55104;47.356;19.448;2023-06-10T13:08:16;4.67;;;1.63;;
68273;SDS011;55104;47.356;19.448;2023-06-10T13:11:19;4.88;;;1.60;;
68273;SDS011;55104;47.356;19.448;2023-06-10T13:14:21;4.32;;;1.55;;
68273;SDS011;55104;47.356;19.448;2023-06-10T13:17:23;5.72;;;1.60;;
68273;SDS011;55104;47.356;19.448;2023-06-10T13:20:26;4.82;;;1.50;;
68273;SDS011;55104;47.356;19.448;2023-06-10T13:23:28;4.27;;;1.40;;
68273;SDS011;55104;47.356;19.448;2023-06-10T13:26:30;5.00;;;1.70;;
68273;SDS011;55104;47.356;19.448;2023-06-10T13:29:32;4.60;;;1.60;;
68273;SDS011;55104;47.356;19.448;2023-06-10T13:32:34;4.88;;;1.70;;
68273;SDS011;55104;47.356;19.448;2023-06-10T13:35:37;5.63;;;1.70;;
68273;SDS011;55104;47.356;19.448;2023-06-10T13:38:39;6.17;;;1.60;;
68273;SDS011;55104;47.356;19.448;2023-06-10T13:41:41;4.95;;;1.70;;
68273;SDS011;55104;47.356;19.448;2023-06-10T13:44:43;4.78;;;1.85;;
68273;SDS011;55104;47.356;19.448;2023-06-10T13:47:46;4.65;;;1.75;;
68273;SDS011;55104;47.356;19.448;2023-06-10T13:50:48;4.50;;;1.70;;
68273;SDS011;55104;47.356;19.448;2023-06-10T13:53:50;4.07;;;1.30;;
68273;SDS011;55104;47.356;19.448;2023-06-10T13:56:53;3.85;;;1.30;;
68273;SDS011;55104;47.356;19.448;2023-06-10T13:59:55;3.88;;;1.50;;
68273;SDS011;55104;47.356;19.448;2023-06-10T14:02:58;4.53;;;1.40;;
68273;SDS011;55104;47.356;19.448;2023-06-10T14:06:00;5.72;;;1.80;;
68273;SDS011;55104;47.356;19.448;2023-06-10T14:09:02;4.53;;;1.73;;
68273;SDS011;55104;47.356;19.448;2023-06-10T14:12:05;4.75;;;1.55;;
68273;SDS011;55104;47.356;19.448;2023-06-10T14:15:08;4.65;;;1.63;;
68273;SDS011;55104;47.356;19.448;2023-06-10T14:18:10;5.63;;;2.00;;
68273;SDS011;55104;47.356;19.448;2023-06-10T14:21:12;5.95;;;1.83;;
68273;SDS011;55104;47.356;19.448;2023-06-10T14:24:15;4.47;;;1.40;;
68273;SDS011;55104;47.356;19.448;2023-06-10T14:27:17;3.58;;;1.00;;
68273;SDS011;55104;47.356;19.448;2023-06-10T14:30:19;4.25;;;1.50;;
68273;SDS011;55104;47.356;19.448;2023-06-10T14:33:21;5.05;;;1.60;;
68273;SDS011;55104;47.356;19.448;2023-06-10T14:36:23;4.25;;;1.45;;
68273;SDS011;55104;47.356;19.448;2023-06-10T14:39:25;3.33;;;1.00;;
68273;SDS011;55104;47.356;19.448;2023-06-10T14:42:28;3.78;;;1.30;;
68273;SDS011;55104;47.356;19.448;2023-06-10T14:45:30;5.50;;;2.03;;
68273;SDS011;55104;47.356;19.448;2023-06-10T14:48:32;5.72;;;1.92;;
68273;SDS011;55104;47.356;19.448;2023-06-10T14:51:34;6.25;;;1.98;;
68273;SDS011;55104;47.356;19.448;2023-06-10T14:54:37;6.00;;;2.20;;
68273;SDS011;55104;47.356;19.448;2023-06-10T14:57:39;4.88;;;1.98;;
68273;SDS011;55104;47.356;19.448;2023-06-10T15:00:41;5.82;;;2.20;;
68273;SDS011;55104;47.356;19.448;2023-06-10T15:03:43;5.68;;;2.00;;
68273;SDS011;55104;47.356;19.448;2023-06-10T15:06:46;4.90;;;1.98;;
68273;SDS011;55104;47.356;19.448;2023-06-10T15:09:50;5.93;;;1.90;;
68273;SDS011;55104;47.356;19.448;2023-06-10T15:12:52;14.73;;;2.40;;
68273;SDS011;55104;47.356;19.448;2023-06-10T15:15:57;5.47;;;2.05;;
68273;SDS011;55104;47.356;19.448;2023-06-10T15:19:04;4.65;;;1.90;;
68273;SDS011;55104;47.356;19.448;2023-06-10T15:22:09;6.18;;;2.10;;
68273;SDS011;55104;47.356;19.448;2023-06-10T15:25:13;5.90;;;1.90;;
68273;SDS011;55104;47.356;19.448;2023-06-10T15:28:18;6.20;;;1.60;;
68273;SDS011;55104;47.356;19.448;2023-06-10T15:31:20;5.60;;;2.42;;
68273;SDS011;55104;47.356;19.448;2023-06-10T15:34:22;6.25;;;2.40;;
68273;SDS011;55104;47.356;19.448;2023-06-10T15:37:24;5.68;;;2.17;;
68273;SDS011;55104;47.356;19.448;2023-06-10T15:40:26;6.07;;;2.30;;
68273;SDS011;55104;47.356;19.448;2023-06-10T15:43:28;6.15;;;2.50;;
68273;SDS011;55104;47.356;19.448;2023-06-10T15:46:31;6.57;;;2.60;;
68273;SDS011;55104;47.356;19.448;2023-06-10T15:49:33;7.78;;;2.83;;
68273;SDS011;55104;47.356;19.448;2023-06-10T15:52:35;6.70;;;3.00;;
68273;SDS011;55104;47.356;19.448;2023-06-10T15:55:37;6.40;;;3.07;;
68273;SDS011;55104;47.356;19.448;2023-06-10T15:58:39;8.18;;;3.10;;
68273;SDS011;55104;47.356;19.448;2023-06-10T16:01:41;8.43;;;2.65;;
68273;SDS011;55104;47.356;19.448;2023-06-10T16:04:44;6.05;;;2.60;;
68273;SDS011;55104;47.356;19.448;2023-06-10T16:07:46;7.53;;;2.80;;
68273;SDS011;55104;47.356;19.448;2023-06-10T16:10:48;6.33;;;2.77;;
68273;SDS011;55104;47.356;19.448;2023-06-10T16:13:50;6.30;;;2.42;;
68273;SDS011;55104;47.356;19.448;2023-06-10T16:16:52;6.25;;;2.72;;
68273;SDS011;55104;47.356;19.448;2023-06-10T16:19:54;6.45;;;2.33;;
68273;SDS011;55104;47.356;19.448;2023-06-10T16:22:56;6.78;;;2.60;;
68273;SDS011;55104;47.356;19.448;2023-06-10T16:25:58;8.37;;;2.60;;
68273;SDS011;55104;47.356;19.448;2023-06-10T16:29:00;7.65;;;2.25;;
68273;SDS011;55104;47.356;19.448;2023-06-10T16:32:02;6.60;;;2.58;;
68273;SDS011;55104;47.356;19.448;2023-06-10T16:35:05;5.72;;;2.15;;
68273;SDS011;55104;47.356;19.448;2023-06-10T16:38:07;6.63;;;2.60;;
68273;SDS011;55104;47.356;19.448;2023-06-10T16:41:09;6.47;;;2.33;;
68273;SDS011;55104;47.356;19.448;2023-06-10T16:44:11;6.10;;;2.55;;
68273;SDS011;55104;47.356;19.448;2023-06-10T16:47:14;6.40;;;2.60;;
68273;SDS011;55104;47.356;19.448;2023-06-10T16:50:16;8.10;;;2.60;;
68273;SDS011;55104;47.356;19.448;2023-06-10T16:53:20;6.45;;;2.72;;
68273;SDS011;55104;47.356;19.448;2023-06-10T16:56:23;6.40;;;2.00;;
68273;SDS011;55104;47.356;19.448;2023-06-10T16:59:24;6.32;;;2.00;;
68273;SDS011;55104;47.356;19.448;2023-06-10T17:02:26;5.00;;;1.80;;
68273;SDS011;55104;47.356;19.448;2023-06-10T17:05:28;6.70;;;2.20;;
68273;SDS011;55104;47.356;19.448;2023-06-10T17:08:31;5.50;;;1.88;;
68273;SDS011;55104;47.356;19.448;2023-06-10T17:11:33;5.97;;;2.30;;
68273;SDS011;55104;47.356;19.448;2023-06-10T17:14:35;5.40;;;1.83;;
68273;SDS011;55104;47.356;19.448;2023-06-10T17:17:37;5.90;;;2.15;;
68273;SDS011;55104;47.356;19.448;2023-06-10T17:20:39;6.13;;;2.25;;
68273;SDS011;55104;47.356;19.448;2023-06-10T17:23:41;6.00;;;2.05;;
68273;SDS011;55104;47.356;19.448;2023-06-10T17:26:43;6.73;;;2.33;;
68273;SDS011;55104;47.356;19.448;2023-06-10T17:29:45;7.07;;;2.22;;
68273;SDS011;55104;47.356;19.448;2023-06-10T17:32:47;6.57;;;2.00;;
68273;SDS011;55104;47.356;19.448;2023-06-10T17:35:51;6.72;;;2.33;;
68273;SDS011;55104;47.356;19.448;2023-06-10T17:38:53;7.20;;;2.22;;
68273;SDS011;55104;47.356;19.448;2023-06-10T17:41:55;6.47;;;2.53;;
68273;SDS011;55104;47.356;19.448;2023-06-10T17:44:57;5.78;;;2.05;;
68273;SDS011;55104;47.356;19.448;2023-06-10T17:47:59;7.55;;;2.78;;
68273;SDS011;55104;47.356;19.448;2023-06-10T17:51:01;5.65;;;2.08;;
68273;SDS011;55104;47.356;19.448;2023-06-10T17:54:03;7.22;;;2.38;;
68273;SDS011;55104;47.356;19.448;2023-06-10T17:57:08;5.67;;;2.33;;
68273;SDS011;55104;47.356;19.448;2023-06-10T18:00:10;7.03;;;2.45;;
68273;SDS011;55104;47.356;19.448;2023-06-10T18:03:12;8.20;;;2.72;;
68273;SDS011;55104;47.356;19.448;2023-06-10T18:06:17;7.05;;;2.75;;
68273;SDS011;55104;47.356;19.448;2023-06-10T18:09:19;7.25;;;3.22;;
68273;SDS011;55104;47.356;19.448;2023-06-10T18:12:23;7.97;;;3.50;;